Time;durP1;ratioP1;P1;durP2;ratioP2;P2;SDS_P1;SDS_P2;PMS_P1;PMS_P2;Temp;Humidity;BMP_temperature;BMP_pressure;BME280_temperature;BME280_humidity;BME280_pressure;Samples;Min_cycle;Max_cycle;Signal;HPM_P1;HPM_P2
2022/06/08 00:01:38;;;;;;;15.82;7.60;;;;;;;-144.94;76.58;76077.22;4977917;28;20085;-86
2022/06/08 00:04:06;;;;;;;14.35;7.20;;;;;;;-144.94;76.81;76085.44;4978076;28;20037;-86
2022/06/08 00:06:32;;;;;;;14.55;8.05;;;;;;;-144.94;76.86;76083.38;4977710;28;20046;-86
2022/06/08 00:08:57;;;;;;;14.20;7.50;;;;;;;-144.94;76.74;76091.63;4977962;28;20472;-86
2022/06/08 00:11:23;;;;;;;;;;;;;;;-144.94;77.16;76097.81;4977906;28;20423;-86
2022/06/08 00:13:48;;;;;;;15.75;7.68;;;;;;;-144.94;77.08;76097.81;4976423;28;19961;-87
2022/06/08 00:16:14;;;;;;;15.68;7.38;;;;;;;-144.94;77.23;76089.56;4960493;28;20031;-86
2022/06/08 00:18:40;;;;;;;;;;;;;;;-144.94;77.18;76099.84;4977913;28;20038;-86
2022/06/08 00:21:07;;;;;;;16.67;7.75;;;;;;;-144.94;77.30;76099.84;4977506;28;20374;-86
2022/06/08 00:23:32;;;;;;;16.05;8.18;;;;;;;-144.94;77.07;76081.34;4977509;28;20086;-85
2022/06/08 00:25:58;;;;;;;16.90;8.25;;;;;;;-144.94;77.16;76089.56;4976555;28;20430;-87
2022/06/08 00:28:23;;;;;;;;;;;;;;;-144.94;77.09;76089.56;4978318;28;20126;-86
2022/06/08 00:30:48;;;;;;;14.57;7.27;;;;;;;-144.94;77.29;76087.50;4977551;28;19917;-87
2022/06/08 00:33:14;;;;;;;18.73;8.32;;;;;;;-144.94;77.18;76087.50;4977404;28;20262;-87
2022/06/08 00:35:39;;;;;;;14.85;7.63;;;;;;;-144.94;77.29;76093.69;4977513;28;20450;-87
2022/06/08 00:38:04;;;;;;;;;;;;;;;-144.94;76.90;76081.34;4977727;28;20042;-87
2022/06/08 00:40:51;;;;;;;16.77;7.18;;;;;;;-144.94;76.89;76081.34;4977551;28;19957;-86
2022/06/08 00:43:17;;;;;;;17.77;7.95;;;;;;;-144.94;77.04;76081.34;4977581;28;20039;-87
2022/06/08 00:45:43;;;;;;;;;;;;;;;-144.94;76.82;76079.28;4977486;28;20169;-87
2022/06/08 00:48:09;;;;;;;17.08;7.47;;;;;;;-144.94;76.96;76077.22;4976972;28;19960;-87
2022/06/08 00:50:55;;;;;;;16.40;7.72;;;;;;;-144.94;76.50;76075.16;4976782;28;20537;-87
2022/06/08 00:53:30;;;;;;;15.90;7.78;;;;;;;-144.94;76.38;76073.09;4976599;28;20441;-87
2022/06/08 00:55:58;;;;;;;19.98;8.65;;;;;;;-144.94;76.47;76068.97;4976919;28;20031;-88
2022/06/08 00:58:29;;;;;;;16.13;8.13;;;;;;;-144.94;76.39;76071.03;4977210;28;20034;-87
2022/06/08 01:00:55;;;;;;;17.02;8.48;;;;;;;-144.94;76.28;76068.97;4976553;28;20078;-87
2022/06/08 01:03:21;;;;;;;15.57;7.82;;;;;;;-144.94;76.37;76068.97;4976937;28;20027;-86
2022/06/08 01:05:58;;;;;;;;;;;;;;;-144.94;76.09;76060.75;4960015;28;20458;-86
2022/06/08 01:08:28;;;;;;;17.80;8.25;;;;;;;-144.94;75.89;76062.81;4976709;28;19921;-87
2022/06/08 01:10:56;;;;;;;17.60;8.15;;;;;;;-144.94;75.69;76060.75;4976854;28;20030;-87
2022/06/08 01:13:22;;;;;;;19.30;8.45;;;;;;;-144.94;75.78;76060.75;4976869;28;20124;-86
2022/06/08 01:15:48;;;;;;;21.23;9.57;;;;;;;-144.94;75.62;76062.81;4959432;28;20059;-86
2022/06/08 01:18:14;;;;;;;16.15;7.40;;;;;;;-144.94;75.84;76064.88;4976899;28;20031;-86
2022/06/08 01:20:48;;;;;;;15.13;7.43;;;;;;;-144.94;76.21;76075.16;4978565;28;20033;-87
2022/06/08 01:23:15;;;;;;;18.27;8.77;;;;;;;-144.94;76.61;76073.09;4976864;28;20118;-85
2022/06/08 01:26:18;;;;;;;16.63;7.35;;;;;;;-144.94;76.65;76079.28;4959449;28;20026;-86
2022/06/08 01:29:17;;;;;;;15.65;7.78;;;;;;;-144.94;76.92;76075.16;4976456;28;20381;-87
2022/06/08 01:32:20;;;;;;;16.20;6.93;;;;;;;-144.94;76.87;76075.16;4979499;28;20038;-87
2022/06/08 01:35:00;;;;;;;16.42;7.97;;;;;;;-144.94;77.19;76073.09;4976780;28;20050;-86
2022/06/08 01:37:59;;;;;;;14.40;7.43;;;;;;;-144.94;77.00;76077.22;4976619;28;20022;-87
2022/06/08 01:40:45;;;;;;;17.55;7.85;;;;;;;-144.94;77.18;76073.09;4976603;28;20034;-87
2022/06/08 01:43:28;;;;;;;16.67;7.72;;;;;;;-144.94;77.10;76071.03;4976857;28;20466;-87
2022/06/08 01:46:07;;;;;;;16.10;7.63;;;;;;;-144.94;76.94;76068.97;4975999;28;20532;-86
2022/06/08 01:49:03;;;;;;;15.23;7.18;;;;;;;-144.94;77.27;76073.09;4976112;28;20097;-87
2022/06/08 01:52:27;;;;;;;16.50;7.15;;;;;;;-144.94;77.27;76081.34;4976397;28;20444;-86
2022/06/08 01:54:58;;;;;;;18.70;7.68;;;;;;;-144.94;77.46;76073.09;4897530;29;20063;-86
2022/06/08 01:57:46;;;;;;;17.15;6.85;;;;;;;-144.94;77.38;76075.16;4974836;28;20043;-87
2022/06/08 02:00:21;;;;;;;17.15;7.40;;;;;;;-144.94;77.07;76054.56;4975999;28;20385;-86
2022/06/08 02:03:01;;;;;;;18.48;7.70;;;;;;;-144.94;77.09;76052.50;4975855;28;20031;-86
2022/06/08 02:05:40;;;;;;;19.05;8.30;;;;;;;-144.94;77.19;76044.28;4974651;28;20489;-87
2022/06/08 02:08:30;;;;;;;17.92;8.52;;;;;;;-144.94;76.99;76038.09;4975759;28;20158;-87
2022/06/08 02:11:04;;;;;;;17.00;7.57;;;;;;;-144.94;76.93;76034.00;4975762;28;20598;-87
2022/06/08 02:13:40;;;;;;;16.23;7.80;;;;;;;-144.94;76.96;76031.94;4975711;28;20034;-87
2022/06/08 02:16:16;;;;;;;18.45;7.85;;;;;;;-144.94;76.88;76031.94;4975919;28;20039;-88
2022/06/08 02:18:46;;;;;;;15.20;7.05;;;;;;;-144.94;77.09;76036.03;4975495;28;20031;-87
2022/06/08 02:21:42;;;;;;;20.40;7.85;;;;;;;-144.94;76.79;76031.94;4976274;28;20359;-87
2022/06/08 02:24:22;;;;;;;16.33;7.70;;;;;;;-144.94;76.56;76019.56;4976089;28;20027;-87
2022/06/08 02:26:55;;;;;;;17.85;7.32;;;;;;;-144.94;76.65;76027.81;4974309;28;20027;-87
2022/06/08 02:29:32;;;;;;;16.67;7.72;;;;;;;-144.94;76.68;76036.03;4975264;28;20027;-87
2022/06/08 02:34:27;;;;;;;14.45;6.70;;;;;;;-144.94;77.18;76038.09;4978348;28;20066;-86
2022/06/08 02:34:53;;;;;;;13.27;6.40;;;;;;;-144.94;77.00;76036.03;4978464;28;20047;-87
2022/06/08 02:37:28;;;;;;;15.77;6.05;;;;;;;-144.94;76.92;76038.09;4976224;28;20027;-87
2022/06/08 02:40:19;;;;;;;14.10;6.40;;;;;;;-144.94;76.81;76031.94;4975404;28;20077;-88
2022/06/08 02:42:50;;;;;;;15.48;6.18;;;;;;;-144.94;76.79;76038.09;4975089;28;20030;-86
2022/06/08 02:45:21;;;;;;;12.85;5.25;;;;;;;-144.94;77.17;76044.28;4974930;28;20038;-87
2022/06/08 02:47:50;;;;;;;12.10;5.90;;;;;;;-144.94;77.30;76054.56;4974938;28;20134;-86
2022/06/08 02:50:23;;;;;;;13.80;5.70;;;;;;;-144.94;77.32;76048.41;4975232;28;20034;-86
2022/06/08 02:52:50;;;;;;;11.98;5.30;;;;;;;-144.94;77.13;76046.34;4975503;28;20027;-87
2022/06/08 02:55:21;;;;;;;12.13;5.35;;;;;;;-144.94;77.03;76044.28;4975726;28;20113;-86
2022/06/08 02:58:26;;;;;;;13.77;5.28;;;;;;;-144.94;76.94;76044.28;4977351;28;20090;-87
2022/06/08 03:01:00;;;;;;;10.63;4.80;;;;;;;-144.94;76.80;76052.50;4961923;28;20062;-87
2022/06/08 03:03:32;;;;;;;11.20;5.30;;;;;;;-144.94;76.61;76044.28;4971736;29;20042;-85
2022/06/08 03:06:06;;;;;;;8.98;4.68;;;;;;;-144.94;76.52;76050.47;4971407;28;20083;-85
2022/06/08 03:08:37;;;;;;;10.60;4.80;;;;;;;-144.94;76.86;76056.63;4969969;29;20046;-85
2022/06/08 03:11:06;;;;;;;9.32;4.25;;;;;;;-144.94;76.22;76044.28;4967632;29;20038;-85
2022/06/08 03:13:38;;;;;;;9.82;4.45;;;;;;;-144.94;76.57;76052.50;4971803;29;20529;-88
2022/06/08 03:16:07;;;;;;;9.48;4.28;;;;;;;-144.94;76.71;76056.63;4972459;29;20034;-87
2022/06/08 03:18:33;;;;;;;9.80;4.47;;;;;;;-144.94;76.40;76048.41;4970007;29;20067;-86
2022/06/08 03:21:00;;;;;;;9.23;4.25;;;;;;;-144.94;76.51;76052.50;4972416;29;20027;-86
2022/06/08 03:23:25;;;;;;;10.20;3.63;;;;;;;-144.94;76.43;76042.22;4990739;28;20039;-86
2022/06/08 03:25:51;;;;;;;8.90;3.88;;;;;;;-144.94;76.34;76046.34;4971658;28;20062;-82
2022/06/08 03:28:18;;;;;;;9.30;3.80;;;;;;;-144.94;76.42;76046.34;4975139;29;20067;-86
2022/06/08 03:30:45;;;;;;;10.10;4.50;;;;;;;-144.94;76.34;76044.28;4974212;28;20036;-87
2022/06/08 03:33:12;;;;;;;7.78;3.88;;;;;;;-144.94;76.12;76038.09;4972333;29;20031;-87
2022/06/08 03:35:39;;;;;;;7.85;3.75;;;;;;;-144.94;76.20;76048.41;4971492;29;20027;-88
2022/06/08 03:38:05;;;;;;;8.25;3.97;;;;;;;-144.94;76.07;76048.41;4993689;28;20027;-87
2022/06/08 03:40:31;;;;;;;7.30;4.13;;;;;;;-144.94;76.02;76050.47;4974916;29;20031;-88
2022/06/08 03:42:57;;;;;;;7.90;3.78;;;;;;;-144.94;75.86;76048.41;4979325;28;20034;-86
2022/06/08 03:45:23;;;;;;;8.10;3.50;;;;;;;-144.94;75.80;76044.28;4996371;28;20023;-88
2022/06/08 03:47:51;;;;;;;7.57;3.13;;;;;;;-144.94;75.58;76040.16;4981314;29;20081;-87
2022/06/08 03:50:24;;;;;;;8.77;3.78;;;;;;;-144.94;75.34;76029.88;4997302;28;20022;-86
2022/06/08 03:53:09;;;;;;;6.80;3.13;;;;;;;-144.94;75.23;76034.00;4978781;29;20046;-87
2022/06/08 03:55:36;;;;;;;6.90;2.90;;;;;;;-144.94;75.02;76034.00;4982749;28;20023;-86
2022/06/08 03:58:03;;;;;;;7.57;3.05;;;;;;;-144.94;75.10;76023.69;4982721;28;20038;-86
2022/06/08 04:00:29;;;;;;;7.13;3.40;;;;;;;-144.94;75.19;76021.63;4998751;28;20070;-87
2022/06/08 04:02:55;;;;;;;;;;;;;;;-144.94;74.89;76029.88;5001589;28;20050;-87
2022/06/08 04:05:22;;;;;;;8.70;2.95;;;;;;;-144.94;74.46;76023.69;5001313;28;19929;-87
2022/06/08 04:07:47;;;;;;;6.47;2.67;;;;;;;-144.94;74.34;76011.34;5000721;28;20038;-86
2022/06/08 04:10:14;;;;;;;6.78;2.60;;;;;;;-144.94;74.16;76007.22;5001415;28;20035;-87
2022/06/08 04:12:40;;;;;;;6.85;2.50;;;;;;;-144.94;74.07;76005.16;5000461;28;20029;-87
2022/06/08 04:15:06;;;;;;;7.03;2.78;;;;;;;-144.94;73.43;75988.69;5000559;28;20027;-87
2022/06/08 04:17:31;;;;;;;5.63;2.60;;;;;;;-144.94;73.16;75986.63;5000717;28;20049;-87
2022/06/08 04:19:57;;;;;;;7.18;2.35;;;;;;;-144.94;73.02;75992.81;5001357;28;20046;-87
2022/06/08 04:22:25;;;;;;;;;;;;;;;-144.94;72.95;75986.63;5001485;28;20094;-87
2022/06/08 04:24:51;;;;;;;6.75;2.67;;;;;;;-144.94;72.68;75982.53;5001215;28;19938;-87
2022/06/08 04:27:17;;;;;;;6.40;2.50;;;;;;;-144.94;73.10;75986.63;5001082;28;20034;-87
2022/06/08 04:29:44;;;;;;;5.78;2.72;;;;;;;-144.94;72.32;75972.22;4983350;28;20022;-87
2022/06/08 04:32:11;;;;;;;4.97;2.20;;;;;;;-144.94;71.32;75957.81;4979516;28;20031;-88
2022/06/08 04:34:41;;;;;;;4.80;2.53;;;;;;;-144.94;71.68;75970.16;5000318;28;20035;-86
2022/06/08 04:37:08;;;;;;;4.35;2.13;;;;;;;-144.94;71.49;75968.13;4998470;28;20026;-87
2022/06/08 04:39:34;;;;;;;4.82;2.08;;;;;;;-144.94;70.48;75949.59;4996282;28;20023;-86
2022/06/08 04:42:00;;;;;;;4.78;2.22;;;;;;;-144.94;70.28;75951.66;4999696;28;20098;-88
2022/06/08 04:44:25;;;;;;;;;;;;;;;-144.94;70.47;75955.75;4998499;28;20043;-87
2022/06/08 04:46:51;;;;;;;4.45;1.80;;;;;;;-144.94;70.72;75959.88;4997962;28;19940;-86
2022/06/08 04:49:16;;;;;;;;;;;;;;;-144.94;70.08;75961.94;4993965;28;20038;-88
2022/06/08 04:51:42;;;;;;;6.72;1.73;;;;;;;-144.94;70.05;75959.88;4998888;28;19914;-86
2022/06/08 04:54:08;;;;;;;;;;;;;;;-144.94;70.35;75961.94;4981899;28;20066;-87
2022/06/08 04:56:34;;;;;;;4.53;2.10;;;;;;;-144.94;70.08;75957.81;4998512;28;20016;-85
2022/06/08 04:59:01;;;;;;;3.80;1.60;;;;;;;-144.94;69.97;75949.59;4997912;28;20043;-85
2022/06/08 05:01:26;;;;;;;3.63;1.73;;;;;;;-144.94;69.28;75937.25;4997372;28;20058;-86
2022/06/08 05:03:53;;;;;;;4.65;1.85;;;;;;;-144.94;69.13;75941.34;4996785;28;20034;-85
2022/06/08 05:06:18;;;;;;;4.63;1.80;;;;;;;-144.94;69.05;75935.19;4996253;28;20018;-87
2022/06/08 05:08:46;;;;;;;5.05;1.73;;;;;;;-144.94;68.62;75908.41;4996574;28;20042;-85
2022/06/08 05:11:14;;;;;;;3.75;1.58;;;;;;;-144.94;68.68;75900.19;4991861;28;20035;-84
2022/06/08 05:13:40;;;;;;;3.63;1.60;;;;;;;-144.94;68.52;75914.59;4991882;28;20122;-85
2022/06/08 05:16:05;;;;;;;;;;;;;;;-144.94;68.34;75898.13;4993515;28;20014;-83
2022/06/08 05:18:31;;;;;;;3.40;1.52;;;;;;;-144.94;68.54;75912.53;4993574;28;19914;-85
2022/06/08 05:20:57;;;;;;;;;;;;;;;-144.94;68.56;75902.25;4988481;28;20095;-86
2022/06/08 05:23:35;;;;;;;4.28;1.92;;;;;;;-144.94;68.13;75894.00;4982739;28;19910;-85
2022/06/08 05:26:02;;;;;;;4.20;1.80;;;;;;;-144.94;67.96;75891.94;4980400;28;20137;-88
2022/06/08 05:28:27;;;;;;;4.43;1.67;;;;;;;-144.94;67.91;75879.59;4987429;28;20106;-83
2022/06/08 05:30:54;;;;;;;;;;;;;;;-144.94;67.88;75871.38;4991478;28;20378;-86
2022/06/08 05:33:20;;;;;;;3.42;1.60;;;;;;;-144.94;68.12;75867.25;4990734;28;19910;-85
2022/06/08 05:35:45;;;;;;;;;;;;;;;-144.94;68.20;75871.38;4996449;28;20038;-88
2022/06/08 05:38:11;;;;;;;5.40;1.95;;;;;;;-144.94;67.89;75856.97;4998408;28;19910;-88
2022/06/08 05:40:37;;;;;;;;;;;;;;;-144.94;67.20;75834.31;4998548;28;20034;-89
2022/06/08 05:43:04;;;;;;;3.27;1.50;;;;;;;-144.94;66.41;75817.84;4995290;28;19902;-89
2022/06/08 05:45:31;;;;;;;3.47;1.50;;;;;;;-144.94;66.18;75807.56;4998364;28;20051;-89
2022/06/08 05:47:58;;;;;;;3.05;1.20;;;;;;;-144.94;65.66;75786.97;4997324;28;20074;-88
2022/06/08 05:50:24;;;;;;;4.88;1.30;;;;;;;-144.94;65.45;75776.69;4998110;28;20050;-89
2022/06/08 05:52:51;;;;;;;3.13;1.20;;;;;;;-144.94;64.96;75760.22;4997393;28;20025;-89
2022/06/08 05:55:19;;;;;;;2.80;1.17;;;;;;;-144.94;65.45;75749.94;4997769;28;20041;-87
2022/06/08 05:57:46;;;;;;;3.28;1.30;;;;;;;-144.94;65.14;75751.97;4997962;28;20039;-87
2022/06/08 06:00:16;;;;;;;4.30;1.20;;;;;;;-144.94;65.07;75754.03;4997723;28;20079;-87
2022/06/08 06:02:43;;;;;;;2.63;1.10;;;;;;;-144.94;65.65;75749.94;4998087;28;20034;-88
2022/06/08 06:05:09;;;;;;;3.25;1.20;;;;;;;-144.94;64.57;75741.69;4989381;28;20054;-89
2022/06/08 06:07:36;;;;;;;2.50;1.15;;;;;;;-144.94;64.33;75735.53;4995003;28;20042;-88
2022/06/08 06:10:03;;;;;;;4.07;1.33;;;;;;;-144.94;64.98;75733.47;4996352;28;20039;-88
2022/06/08 06:12:34;;;;;;;4.72;1.00;;;;;;;-144.94;65.18;75714.94;4993990;28;20034;-88
2022/06/08 06:15:01;;;;;;;4.30;1.30;;;;;;;-144.94;64.95;75712.88;4989988;28;20063;-88
2022/06/08 06:17:28;;;;;;;2.80;1.17;;;;;;;-144.94;64.98;75698.47;4993500;28;20030;-88
2022/06/08 06:19:56;;;;;;;2.67;1.02;;;;;;;-144.94;64.22;75686.13;4978733;28;20030;-83
2022/06/08 06:22:21;;;;;;;3.42;1.17;;;;;;;-144.94;64.58;75686.13;4976461;28;20061;-83
2022/06/08 06:24:46;;;;;;;;;;;;;;;-144.94;64.39;75682.00;4989303;28;20035;-86
2022/06/08 06:27:14;;;;;;;3.55;1.08;;;;;;;-144.94;63.79;75665.53;4985473;28;20318;-84
2022/06/08 06:29:39;;;;;;;;;;;;;;;-144.94;64.32;75669.66;4983005;28;20081;-84
2022/06/08 06:32:10;;;;;;;2.93;1.30;;;;;;;-144.94;63.64;75657.31;4986462;28;19933;-83
2022/06/08 06:34:35;;;;;;;4.15;1.08;;;;;;;-144.94;62.84;75655.25;4985474;28;20460;-84
2022/06/08 06:37:01;;;;;;;;;;;;;;;-144.94;61.58;75620.25;4981494;28;20066;-82
2022/06/08 06:39:27;;;;;;;7.53;1.88;;;;;;;-144.94;60.95;75616.13;4976564;28;20335;-84
2022/06/08 06:41:52;;;;;;;;;;;;;;;-144.94;60.40;75640.84;4981829;28;20037;-85
2022/06/08 06:44:17;;;;;;;1.43;0.80;;;;;;;-144.94;59.67;75595.56;4988379;28;19908;-87
2022/06/08 06:46:42;;;;;;;;;;;;;;;-144.94;59.02;75587.31;4993271;28;20270;-86
2022/06/08 06:49:08;;;;;;;4.33;1.70;;;;;;;-144.94;58.94;75554.38;4994481;28;19910;-87
2022/06/08 06:51:34;;;;;;;;;;;;;;;-144.94;58.79;75570.84;4994578;28;20318;-87
2022/06/08 06:54:00;;;;;;;1.70;0.70;;;;;;;-144.94;58.47;75570.84;4990213;28;19910;-85
2022/06/08 06:56:26;;;;;;;1.77;0.70;;;;;;;-144.94;58.08;75583.19;4987913;28;20114;-85
2022/06/08 06:58:53;;;;;;;1.63;0.75;;;;;;;-144.94;57.75;75568.78;4984920;28;20055;-83
2022/06/08 07:01:18;;;;;;;1.83;0.63;;;;;;;-144.94;57.67;75546.16;4981920;28;20047;-83
2022/06/08 07:03:44;;;;;;;1.85;0.70;;;;;;;-144.94;57.51;75546.16;4978421;28;20049;-83
2022/06/08 07:06:09;;;;;;;;;;;;;;;-144.94;57.56;75539.97;4979412;28;20035;-84
2022/06/08 07:08:35;;;;;;;3.00;0.90;;;;;;;-144.94;57.43;75539.97;4976494;28;19997;-84
2022/06/08 07:13:44;;;;;;;2.80;1.10;;;;;;;-144.94;57.65;75502.94;4976749;28;20038;-83
2022/06/08 07:16:09;;;;;;;2.45;0.70;;;;;;;-144.94;57.24;75502.94;4977327;28;20043;-84
2022/06/08 07:18:35;;;;;;;1.65;0.60;;;;;;;-144.94;56.37;75507.06;4958786;28;20033;-83
2022/06/08 07:21:00;;;;;;;1.38;0.70;;;;;;;-144.94;56.49;75507.06;4986062;28;20031;-88
2022/06/08 07:23:26;;;;;;;1.55;0.70;;;;;;;-144.94;56.03;75500.88;4991899;28;20062;-87
2022/06/08 07:25:51;;;;;;;;;;;;;;;-144.94;56.67;75482.34;4992629;28;20122;-88
2022/06/08 07:28:17;;;;;;;2.13;0.70;;;;;;;-144.94;55.74;75470.00;4982077;28;19969;-87
2022/06/08 07:30:42;;;;;;;;;;;;;;;-144.94;55.44;75472.06;4978288;28;20039;-87
2022/06/08 07:33:07;;;;;;;2.60;0.80;;;;;;;-144.94;55.77;75443.25;4976625;28;19913;-86
2022/06/08 07:35:33;;;;;;;;;;;;;;;-144.94;55.34;75430.91;4976168;28;20286;-86
2022/06/08 07:37:58;;;;;;;1.33;0.60;;;;;;;-144.94;55.26;75432.94;4974437;28;19914;-84
2022/06/08 07:40:23;;;;;;;;;;;;;;;-144.94;54.89;75437.06;4974404;28;20290;-83
2022/06/08 07:42:49;;;;;;;0.97;0.50;;;;;;;-144.94;54.65;75430.91;4974183;28;20369;-82
2022/06/08 07:45:14;;;;;;;;;;;;;;;-144.94;54.26;75426.78;4974719;28;20266;-84
2022/06/08 07:50:27;;;;;;;2.22;0.77;;;;;;;-144.94;54.00;75414.44;4974257;28;20118;-83
2022/06/08 07:52:52;;;;;;;2.10;1.00;;;;;;;-144.94;54.46;75410.31;4973625;28;20118;-84
2022/06/08 07:55:18;;;;;;;4.38;1.10;;;;;;;-144.94;53.81;75426.78;4974251;28;20133;-80
2022/06/08 07:57:47;;;;;;;1.75;0.88;;;;;;;-144.94;54.04;75395.91;4973841;28;20065;-83
2022/06/08 08:00:17;;;;;;;2.42;0.63;;;;;;;-144.94;53.19;75402.09;4974013;28;20398;-82
2022/06/08 08:02:42;;;;;;;1.92;0.73;;;;;;;-144.94;52.73;75393.84;4973849;28;20038;-82
2022/06/08 08:05:12;;;;;;;1.83;0.70;;;;;;;-144.94;52.67;75375.31;4974136;28;20038;-80
2022/06/08 08:07:39;;;;;;;2.08;0.75;;;;;;;-144.94;53.48;75391.78;4972501;28;20442;-83
2022/06/08 08:10:08;;;;;;;1.65;0.63;;;;;;;-144.94;53.53;75389.72;4973964;28;20148;-82
2022/06/08 08:12:34;;;;;;;2.38;0.85;;;;;;;-144.94;53.44;75381.50;4977574;28;20042;-81
2022/06/08 08:14:59;;;;;;;2.75;1.20;;;;;;;-144.94;53.77;75373.25;4977504;28;20026;-83
2022/06/08 08:17:24;;;;;;;1.88;0.75;;;;;;;-144.94;53.40;75365.03;4976204;28;20030;-83
2022/06/08 08:19:50;;;;;;;1.08;0.60;;;;;;;-144.94;52.82;75373.25;4977643;28;20038;-83
2022/06/08 08:22:19;;;;;;;;;;;;;;;-144.94;52.65;75377.38;4976079;28;20030;-82
2022/06/08 08:24:44;;;;;;;1.63;0.70;;;;;;;-144.94;52.92;75358.84;4977331;28;19918;-83
2022/06/08 08:27:10;;;;;;;1.35;0.68;;;;;;;-144.94;52.70;75360.91;4977293;28;20102;-84
2022/06/08 08:29:35;;;;;;;;;;;;;;;-144.94;53.05;75360.91;4976613;28;20058;-82
2022/06/08 08:32:01;;;;;;;1.92;1.02;;;;;;;-144.94;52.07;75317.69;4977713;28;19910;-85
2022/06/08 08:34:27;;;;;;;1.83;0.82;;;;;;;-144.94;52.42;75307.41;4976778;28;20031;-84
2022/06/08 08:36:53;;;;;;;2.80;0.80;;;;;;;-144.94;53.01;75323.88;4976758;28;20078;-84
2022/06/08 08:39:19;;;;;;;1.05;0.50;;;;;;;-144.94;53.03;75323.88;4977185;28;20061;-83
2022/06/08 08:44:39;;;;;;;0.85;0.52;;;;;;;-144.94;52.85;75286.81;4977312;28;20093;-83
2022/06/08 08:47:09;;;;;;;;;;;;;;;-144.94;52.24;75272.41;4977275;28;20030;-82
2022/06/08 08:49:39;;;;;;;2.92;0.80;;;;;;;-144.94;52.24;75272.41;4978286;28;19917;-83
2022/06/08 08:52:39;;;;;;;4.43;1.10;;;;;;;-144.94;51.94;75227.13;4978816;28;20034;-84
2022/06/08 08:55:19;;;;;;;1.85;0.80;;;;;;;-144.94;51.08;75218.91;4911454;28;20046;-83
2022/06/08 08:57:53;;;;;;;4.38;1.30;;;;;;;-144.94;51.11;75202.44;4975344;28;20398;-84
2022/06/08 09:00:26;;;;;;;3.72;0.82;;;;;;;-144.94;50.96;75183.91;4976327;28;20085;-82
2022/06/08 09:05:37;;;;;;;1.70;0.77;;;;;;;-144.94;51.00;75161.28;4977142;28;20046;-87
2022/06/08 09:08:03;;;;;;;2.72;1.10;;;;;;;-144.94;50.90;75151.00;4976570;28;20039;-85
2022/06/08 09:10:28;;;;;;;2.10;0.80;;;;;;;-144.94;50.42;75161.28;4978175;28;20037;-89
2022/06/08 09:12:55;;;;;;;1.27;0.60;;;;;;;-144.94;51.40;75161.28;4978307;28;20034;-86
2022/06/08 09:15:54;;;;;;;3.90;1.00;;;;;;;-144.94;50.77;75136.59;4980514;28;20029;-90
2022/06/08 09:18:39;;;;;;;2.50;1.00;;;;;;;-144.94;50.12;75146.88;4965261;28;20041;-89
2022/06/08 09:21:29;;;;;;;5.00;1.23;;;;;;;-144.94;49.65;75155.09;4977947;28;20035;-89
2022/06/08 09:23:58;;;;;;;3.88;1.00;;;;;;;-144.94;50.53;75177.75;4976725;28;20500;-87
2022/06/08 09:26:23;;;;;;;2.50;1.00;;;;;;;-144.94;50.91;75196.28;4959920;28;20433;-87
2022/06/08 09:28:58;;;;;;;3.37;1.00;;;;;;;-144.94;50.21;75165.41;5193818;23;20045;-84
2022/06/08 09:31:31;;;;;;;1.98;0.90;;;;;;;-144.94;49.17;75109.84;5008128;28;20288;-89
2022/06/08 09:34:15;;;;;;;2.67;0.88;;;;;;;-144.94;48.48;75085.13;5028476;28;20030;-87
2022/06/08 09:36:42;;;;;;;1.67;0.70;;;;;;;-144.94;48.04;75060.44;5026247;28;20111;-90
2022/06/08 09:39:12;;;;;;;1.65;0.63;;;;;;;-144.94;47.40;75029.56;5014994;28;20469;-86
2022/06/08 09:41:46;;;;;;;1.20;0.60;;;;;;;-144.94;46.98;75037.81;5015427;28;20061;-84
2022/06/08 09:44:24;;;;;;;3.40;1.08;;;;;;;-144.94;47.18;75031.63;5018213;28;20026;-83
2022/06/08 09:52:52;;;;;;;1.85;0.90;;;;;;;-144.94;46.15;75035.75;5014955;28;20044;-88
2022/06/08 09:55:55;;;;;;;2.70;0.80;;;;;;;-144.94;46.40;75021.34;5015184;28;20105;-87
2022/06/08 09:58:36;;;;;;;2.20;0.88;;;;;;;-144.94;46.61;75027.50;5014936;28;20042;-84
2022/06/08 10:01:18;;;;;;;1.98;0.88;;;;;;;-144.94;46.90;75046.03;4997225;28;20450;-84
2022/06/08 10:04:01;;;;;;;3.53;0.90;;;;;;;-144.94;45.60;75027.50;5015245;28;20030;-86
2022/06/08 10:06:46;;;;;;;4.35;0.98;;;;;;;-144.94;46.01;75025.47;5014924;28;20045;-85
2022/06/08 10:09:15;;;;;;;2.55;0.77;;;;;;;-144.94;45.99;75017.22;5015230;28;20037;-84
2022/06/08 10:12:14;;;;;;;2.08;0.80;;;;;;;-144.94;45.15;74996.66;4999092;28;20123;-86
2022/06/08 10:15:08;;;;;;;2.47;1.00;;;;;;;-144.94;45.44;75004.88;5000861;28;20037;-87
2022/06/08 10:17:53;;;;;;;2.42;1.05;;;;;;;-144.94;45.62;75015.16;5014672;28;20040;-86
2022/06/08 10:20:23;;;;;;;2.65;1.23;;;;;;;-144.94;45.56;75021.34;5014747;28;20040;-86
2022/06/08 10:23:07;;;;;;;2.55;0.80;;;;;;;-144.94;46.76;75087.19;5013808;28;20503;-85
2022/06/08 10:25:44;;;;;;;2.00;0.82;;;;;;;-144.94;46.52;75076.91;5014204;28;20125;-84
2022/06/08 10:28:22;;;;;;;3.10;0.90;;;;;;;-144.94;46.95;75087.19;5013180;28;20034;-86
2022/06/08 10:30:59;;;;;;;3.55;1.00;;;;;;;-144.94;47.57;75091.31;5014416;28;20069;-85
2022/06/08 10:33:41;;;;;;;2.80;1.08;;;;;;;-144.94;47.76;75091.31;5013929;28;20048;-87
2022/06/08 10:36:10;;;;;;;3.65;0.95;;;;;;;-144.94;47.43;75037.81;5014371;28;20033;-86
2022/06/08 10:38:38;;;;;;;2.20;1.02;;;;;;;-144.94;46.66;75031.63;5014242;28;20026;-85
2022/06/08 10:44:01;;;;;;;2.55;1.02;;;;;;;-144.94;45.47;74963.72;5014338;28;20072;-85
2022/06/08 10:46:46;;;;;;;4.05;1.00;;;;;;;-144.94;44.47;74934.91;4997058;28;20084;-84
2022/06/08 10:49:29;;;;;;;2.63;1.10;;;;;;;-144.94;44.09;74922.56;4996560;28;20034;-84
2022/06/08 10:52:19;;;;;;;2.35;0.90;;;;;;;-144.94;43.80;74947.25;5014233;28;20022;-84
2022/06/08 10:54:58;;;;;;;2.25;0.80;;;;;;;-144.94;43.82;74941.06;4996410;28;20133;-83
2022/06/08 10:57:36;;;;;;;2.03;0.82;;;;;;;-144.94;43.80;74928.72;5014473;28;20107;-85
2022/06/08 11:00:19;;;;;;;2.40;0.90;;;;;;;-144.94;44.20;74969.88;5014549;28;20104;-85
2022/06/08 11:03:01;;;;;;;3.20;1.00;;;;;;;-144.94;44.52;74957.53;5014378;28;20030;-85
2022/06/08 11:05:47;;;;;;;3.60;1.05;;;;;;;-144.94;45.00;74959.59;5014334;28;20029;-85
2022/06/08 11:08:20;;;;;;;3.33;1.10;;;;;;;-144.94;45.21;74961.66;5014356;28;20036;-85
2022/06/08 11:10:53;;;;;;;3.53;1.30;;;;;;;-144.94;45.70;75004.88;5014493;28;20671;-85
2022/06/08 11:13:27;;;;;;;2.55;0.90;;;;;;;-144.94;46.86;75033.69;4996723;28;20030;-82
2022/06/08 11:15:53;;;;;;;4.80;0.90;;;;;;;-144.94;50.92;75142.75;5014153;28;20469;-85
2022/06/08 11:18:45;;;;;;;1.45;0.70;;;;;;;-144.94;54.05;75255.94;5014522;28;20036;-85
2022/06/08 11:21:13;;;;;;;3.22;1.08;;;;;;;-144.94;55.79;75344.44;5014259;28;20135;-86
2022/06/08 11:24:02;;;;;;;3.72;0.98;;;;;;;-144.94;58.54;75420.59;5014323;28;20041;-86
2022/06/08 11:26:46;;;;;;;3.38;0.85;;;;;;;-144.94;60.60;75500.88;5015776;28;20048;-88
2022/06/08 11:29:17;;;;;;;2.22;0.90;;;;;;;-144.94;64.29;75591.44;5016597;28;20046;-89
2022/06/08 11:31:43;;;;;;;3.33;1.10;;;;;;;-144.94;66.05;75634.66;5015690;28;20491;-87
2022/06/08 11:34:20;;;;;;;;;;;;;;;-144.94;66.62;75665.53;5015329;28;20037;-87
2022/06/08 11:37:23;;;;;;;2.28;0.90;;;;;;;-144.94;67.88;75694.34;5014914;28;19913;-86
2022/06/08 11:40:25;;;;;;;4.93;1.45;;;;;;;-144.94;69.21;75704.66;5016502;28;20026;-85
2022/06/08 11:42:56;;;;;;;3.45;1.27;;;;;;;-144.94;69.92;75712.88;5017086;28;20208;-87
2022/06/08 11:45:44;;;;;;;3.58;1.40;;;;;;;-144.94;70.74;75708.75;5015850;28;20091;-87
2022/06/08 11:48:21;;;;;;;4.22;1.58;;;;;;;-144.94;71.42;75706.69;5018317;28;20073;-86
2022/06/08 11:50:58;;;;;;;4.80;1.35;;;;;;;-144.94;71.26;75708.75;5018402;28;20369;-87
2022/06/08 11:53:36;;;;;;;3.10;1.60;;;;;;;-144.94;71.62;75698.47;5017542;28;20095;-85
2022/06/08 11:56:16;;;;;;;3.40;1.33;;;;;;;-144.94;71.55;75698.47;5017318;28;20041;-85
2022/06/08 11:58:46;;;;;;;3.95;1.90;;;;;;;-144.94;71.13;75690.22;5017557;28;20120;-86
2022/06/08 12:01:18;;;;;;;3.35;1.42;;;;;;;-144.94;70.92;75692.28;5017672;28;20022;-87
2022/06/08 12:03:47;;;;;;;7.60;1.80;;;;;;;-144.94;70.74;75692.28;5016765;28;20038;-86